Time;durP1;ratioP1;P1;durP2;ratioP2;P2;SDS_P1;SDS_P2;PMS_P1;PMS_P2;Temp;Humidity;BMP_temperature;BMP_pressure;BME280_temperature;BME280_humidity;BME280_pressure;Samples;Min_cycle;Max_cycle;Signal;HPM_P1;HPM_P2
2022/05/12 00:00:35;;;;;;;12.07;4.87;;;18.10;99.90;;;;;;5089711;28;20187;-68
2022/05/12 00:03:04;;;;;;;8.53;4.47;;;18.10;99.90;;;;;;5091296;28;20189;-68
2022/05/12 00:05:32;;;;;;;15.47;5.17;;;18.10;99.90;;;;;;5091836;28;20646;-68
2022/05/12 00:07:59;;;;;;;9.40;4.40;;;18.20;99.90;;;;;;5091805;28;20312;-68
2022/05/12 00:10:27;;;;;;;15.20;4.30;;;18.20;99.90;;;;;;5091847;28;20182;-68
2022/05/12 00:12:57;;;;;;;10.70;3.80;;;18.20;99.90;;;;;;5091780;28;20221;-68
2022/05/12 00:15:28;;;;;;;9.37;3.73;;;18.20;99.90;;;;;;5091756;28;20183;-68
2022/05/12 00:20:43;;;;;;;10.03;3.93;;;18.40;99.90;;;;;;5083846;28;20213;-67
2022/05/12 00:23:20;;;;;;;13.10;3.90;;;18.40;99.90;;;;;;5091679;28;20190;-68
2022/05/12 00:26:05;;;;;;;9.63;3.73;;;18.30;99.90;;;;;;5090328;28;20659;-67
2022/05/12 00:28:32;;;;;;;13.13;3.53;;;18.30;99.90;;;;;;5104473;28;20174;-67
2022/05/12 00:30:59;;;;;;;13.87;4.77;;;18.30;99.90;;;;;;5090085;28;20270;-67
2022/05/12 00:33:28;;;;;;;12.20;4.17;;;18.30;99.90;;;;;;5091627;28;20256;-67
2022/05/12 00:35:57;;;;;;;11.10;3.97;;;18.30;99.90;;;;;;5090031;28;20187;-68
2022/05/12 00:38:24;;;;;;;10.10;3.97;;;18.30;99.90;;;;;;5091222;28;20175;-67
2022/05/12 00:40:52;;;;;;;12.10;4.90;;;18.40;99.90;;;;;;5091443;28;20228;-67
2022/05/12 00:43:39;;;;;;;17.73;4.70;;;18.40;99.90;;;;;;5091252;28;20541;-68
2022/05/12 00:46:22;;;;;;;16.63;4.03;;;18.40;99.90;;;;;;5092164;28;20248;-67
2022/05/12 00:48:51;;;;;;;11.27;3.60;;;18.40;99.90;;;;;;5094902;28;20179;-67
2022/05/12 00:51:27;;;;;;;18.27;4.33;;;18.40;99.90;;;;;;5094868;28;20182;-67
2022/05/12 00:53:58;;;;;;;17.07;4.23;;;18.50;99.90;;;;;;5094438;28;20364;-66
2022/05/12 00:56:26;;;;;;;15.03;4.33;;;18.40;99.90;;;;;;5094218;28;20307;-69
2022/05/12 00:58:57;;;;;;;14.90;4.50;;;18.50;99.90;;;;;;5094195;28;20183;-69
2022/05/12 01:01:24;;;;;;;12.00;4.40;;;18.50;99.90;;;;;;5094296;28;20167;-69
2022/05/12 01:03:52;;;;;;;14.43;5.43;;;18.60;99.90;;;;;;5094874;28;20182;-68
2022/05/12 01:06:19;;;;;;;16.33;5.23;;;18.60;99.90;;;;;;5094521;28;20171;-68
2022/05/12 01:08:47;;;;;;;11.17;4.80;;;18.70;99.90;;;;;;5094269;28;20184;-68
2022/05/12 01:11:21;;;;;;;14.97;5.03;;;18.70;99.90;;;;;;5094385;28;20195;-67
2022/05/12 01:14:05;;;;;;;17.50;5.10;;;18.70;99.90;;;;;;5094610;28;20203;-67
2022/05/12 01:16:46;;;;;;;16.43;5.00;;;18.80;99.90;;;;;;5096429;28;20181;-67
2022/05/12 01:19:20;;;;;;;12.33;5.40;;;18.80;99.90;;;;;;5098173;28;20178;-68
2022/05/12 01:21:49;;;;;;;14.53;6.13;;;18.90;99.90;;;;;;5094181;28;20400;-67
2022/05/12 01:24:19;;;;;;;14.93;5.00;;;18.90;99.90;;;;;;5092719;28;20223;-68
2022/05/12 01:26:47;;;;;;;11.73;4.50;;;19.00;99.90;;;;;;5094240;28;20184;-68
2022/05/12 01:29:15;;;;;;;17.23;4.90;;;19.00;99.90;;;;;;5094102;28;20624;-68
2022/05/12 01:31:43;;;;;;;12.60;4.70;;;19.10;99.90;;;;;;5094074;28;20186;-69
2022/05/12 01:34:12;;;;;;;16.37;4.37;;;19.10;99.90;;;;;;5094212;28;20215;-67
2022/05/12 01:36:41;;;;;;;10.47;4.00;;;19.20;99.90;;;;;;5094910;28;20227;-68
2022/05/12 01:39:15;;;;;;;12.83;3.13;;;19.20;99.90;;;;;;5097777;28;20250;-68
2022/05/12 01:41:44;;;;;;;12.63;3.30;;;19.30;99.90;;;;;;5098103;28;20653;-68
2022/05/12 01:44:12;;;;;;;13.10;4.20;;;19.40;99.90;;;;;;5096093;28;20190;-69
2022/05/12 01:46:39;;;;;;;20.00;4.07;;;19.50;99.90;;;;;;5096192;28;20197;-68
2022/05/12 01:49:06;;;;;;;13.33;4.10;;;19.40;99.90;;;;;;5095804;28;20708;-67
2022/05/12 01:51:35;;;;;;;11.37;3.87;;;19.40;99.90;;;;;;5096715;28;20179;-69
2022/05/12 01:54:03;;;;;;;14.67;4.53;;;19.50;99.90;;;;;;5096808;28;20733;-68
2022/05/12 01:56:30;;;;;;;19.07;4.80;;;19.40;99.90;;;;;;5095898;28;20208;-68
2022/05/12 01:58:57;;;;;;;14.87;4.07;;;19.40;99.90;;;;;;5094095;28;20173;-68
2022/05/12 02:01:25;;;;;;;11.80;3.47;;;19.40;99.90;;;;;;5094148;28;20684;-69
2022/05/12 02:03:52;;;;;;;9.37;3.73;;;19.40;99.90;;;;;;5094158;28;20271;-69
2022/05/12 02:06:20;;;;;;;13.00;3.50;;;19.50;99.90;;;;;;5096708;28;20320;-69
2022/05/12 02:08:47;;;;;;;10.57;3.20;;;19.60;99.90;;;;;;5096199;28;20210;-69
2022/05/12 02:11:14;;;;;;;13.33;3.30;;;19.60;99.90;;;;;;5095946;28;20187;-69
2022/05/12 02:13:43;;;;;;;14.27;3.90;;;19.60;99.90;;;;;;5097066;28;20684;-70
2022/05/12 02:16:11;;;;;;;15.23;4.23;;;19.70;99.90;;;;;;5095887;28;20289;-68
2022/05/12 02:18:39;;;;;;;22.17;4.73;;;19.80;99.90;;;;;;5095745;28;20273;-68
2022/05/12 02:21:10;;;;;;;12.87;4.03;;;19.80;99.90;;;;;;5093805;28;20286;-69
2022/05/12 02:23:37;;;;;;;17.73;4.60;;;19.80;99.90;;;;;;5096299;28;20190;-68
2022/05/12 02:26:05;;;;;;;13.40;4.43;;;19.80;99.90;;;;;;5094946;28;20191;-69
2022/05/12 02:28:32;;;;;;;15.40;4.07;;;19.70;99.90;;;;;;5096553;28;20182;-69
2022/05/12 02:30:59;;;;;;;18.73;4.13;;;19.60;99.90;;;;;;5094533;28;20181;-68
2022/05/12 02:33:27;;;;;;;14.57;4.67;;;19.60;99.90;;;;;;5094259;28;20203;-67
2022/05/12 02:35:57;;;;;;;14.17;4.37;;;19.70;99.90;;;;;;5095322;28;20174;-68
2022/05/12 02:38:28;;;;;;;17.87;4.43;;;19.70;99.90;;;;;;5095901;28;20179;-67
2022/05/12 02:41:00;;;;;;;15.80;4.57;;;19.60;99.90;;;;;;5094334;28;20191;-67
2022/05/12 02:43:31;;;;;;;13.33;4.50;;;19.60;99.90;;;;;;5093990;28;20193;-68
2022/05/12 02:46:25;;;;;;;12.23;4.87;;;19.70;99.90;;;;;;5095102;28;20184;-68
2022/05/12 02:48:56;;;;;;;13.00;5.00;;;19.60;99.90;;;;;;5095389;28;20278;-69
2022/05/12 02:51:30;;;;;;;13.83;4.77;;;19.60;99.90;;;;;;5096349;28;20169;-69
2022/05/12 02:54:01;;;;;;;16.30;4.93;;;19.70;99.90;;;;;;5095131;28;20215;-68
2022/05/12 02:56:32;;;;;;;13.80;5.33;;;19.70;99.90;;;;;;5096638;28;20228;-69
2022/05/12 02:59:00;;;;;;;22.17;5.50;;;19.80;99.90;;;;;;5096555;28;20172;-69
2022/05/12 03:01:28;;;;;;;15.50;5.40;;;19.70;99.90;;;;;;5095729;28;20654;-69
2022/05/12 03:03:56;;;;;;;19.53;5.97;;;19.80;99.90;;;;;;5095622;28;20189;-68
2022/05/12 03:06:28;;;;;;;13.90;4.87;;;19.70;99.90;;;;;;5095723;28;20221;-69
2022/05/12 03:08:57;;;;;;;13.27;4.73;;;19.80;99.90;;;;;;5094753;28;20225;-69
2022/05/12 03:11:28;;;;;;;17.27;5.87;;;19.80;99.90;;;;;;5094840;28;20563;-69
2022/05/12 03:13:56;;;;;;;15.97;5.27;;;19.70;99.90;;;;;;5095834;28;20214;-68
2022/05/12 03:16:24;;;;;;;19.53;7.17;;;19.70;99.90;;;;;;5093728;28;20191;-68
2022/05/12 03:18:56;;;;;;;17.53;7.20;;;19.70;99.90;;;;;;5093689;28;20179;-69
2022/05/12 03:21:24;;;;;;;21.23;6.70;;;19.50;99.90;;;;;;5094345;28;20192;-68
2022/05/12 03:23:56;;;;;;;20.40;7.70;;;19.60;99.90;;;;;;5092603;28;20683;-66
2022/05/12 03:26:24;;;;;;;16.93;7.07;;;19.60;99.90;;;;;;5092593;28;20639;-68
2022/05/12 03:28:52;;;;;;;22.63;7.13;;;19.60;99.90;;;;;;5093670;28;20562;-68
2022/05/12 03:31:20;;;;;;;18.40;7.03;;;19.60;99.90;;;;;;5092895;28;20189;-69
2022/05/12 03:33:48;;;;;;;18.73;7.40;;;19.60;99.90;;;;;;5093194;28;20549;-68
2022/05/12 03:36:16;;;;;;;15.70;7.27;;;19.60;99.90;;;;;;5090754;28;20199;-69
2022/05/12 03:38:47;;;;;;;24.43;9.00;;;19.60;99.90;;;;;;5095498;28;20171;-69
2022/05/12 03:41:18;;;;;;;19.60;7.97;;;19.60;99.90;;;;;;5094893;28;20190;-68
2022/05/12 03:46:34;;;;;;;20.10;8.40;;;19.60;99.90;;;;;;5093228;28;20640;-68
2022/05/12 03:49:01;;;;;;;22.30;8.30;;;19.50;99.90;;;;;;5093146;28;20269;-69
2022/05/12 03:51:29;;;;;;;16.47;8.63;;;19.50;99.90;;;;;;5093058;28;20232;-69
2022/05/12 03:53:57;;;;;;;21.17;8.60;;;19.50;99.90;;;;;;5093173;28;20222;-69
2022/05/12 03:56:26;;;;;;;16.10;8.97;;;19.50;99.90;;;;;;5092693;28;20235;-69
2022/05/12 03:58:53;;;;;;;21.20;9.37;;;19.50;99.90;;;;;;5093163;28;20191;-69
2022/05/12 04:01:21;;;;;;;20.97;10.17;;;19.50;99.90;;;;;;5092915;28;20628;-69
2022/05/12 04:03:49;;;;;;;25.03;9.67;;;19.50;99.90;;;;;;5093074;28;20273;-69
2022/05/12 04:06:16;;;;;;;17.73;8.93;;;19.60;99.90;;;;;;5093001;28;20176;-68
2022/05/12 04:08:44;;;;;;;25.33;10.30;;;19.60;99.90;;;;;;5092901;28;20199;-68
2022/05/12 04:11:12;;;;;;;22.87;9.33;;;19.60;99.90;;;;;;5093160;28;20172;-69
2022/05/12 04:13:41;;;;;;;24.43;10.07;;;19.70;99.90;;;;;;5092997;28;20221;-69
2022/05/12 04:16:08;;;;;;;20.67;10.00;;;19.70;99.90;;;;;;5092922;28;20202;-69
2022/05/12 04:18:36;;;;;;;21.93;10.50;;;19.70;99.90;;;;;;5092884;28;20584;-69
2022/05/12 04:21:04;;;;;;;23.07;9.93;;;19.70;99.90;;;;;;5094079;28;20593;-69
2022/05/12 04:23:31;;;;;;;16.70;8.97;;;19.60;99.90;;;;;;5096919;28;20264;-68
2022/05/12 04:25:59;;;;;;;28.97;10.10;;;19.60;99.90;;;;;;5096759;28;20621;-69
2022/05/12 04:28:27;;;;;;;25.70;9.33;;;19.60;99.90;;;;;;5096546;28;20712;-69
2022/05/12 04:30:54;;;;;;;19.67;9.13;;;19.60;99.90;;;;;;5096740;28;20689;-69
2022/05/12 04:36:08;;;;;;;26.00;9.37;;;19.70;99.90;;;;;;5097055;28;20174;-69
2022/05/12 04:38:36;;;;;;;19.50;8.93;;;19.80;99.90;;;;;;5096352;28;20183;-68
2022/05/12 04:41:04;;;;;;;17.20;8.17;;;19.80;99.90;;;;;;5096328;28;20174;-69
2022/05/12 04:43:32;;;;;;;19.37;9.23;;;19.90;99.90;;;;;;5096020;28;20182;-69
2022/05/12 04:45:59;;;;;;;19.47;8.77;;;19.90;99.90;;;;;;5096562;28;20179;-69
2022/05/12 04:48:29;;;;;;;16.00;8.67;;;20.00;99.90;;;;;;5096371;28;20170;-70
2022/05/12 04:50:57;;;;;;;27.83;9.07;;;20.10;99.90;;;;;;5096196;28;20183;-70
2022/05/12 04:53:25;;;;;;;22.83;9.73;;;20.10;99.90;;;;;;5096111;28;20272;-68
2022/05/12 04:55:53;;;;;;;21.37;8.50;;;20.00;99.90;;;;;;5095902;28;20723;-68
2022/05/12 04:58:21;;;;;;;24.87;9.80;;;19.90;99.90;;;;;;5095963;28;20194;-68
2022/05/12 05:00:49;;;;;;;16.97;8.43;;;19.90;99.90;;;;;;5094987;28;20275;-69
2022/05/12 05:03:17;;;;;;;17.93;8.73;;;19.80;99.90;;;;;;5094778;28;20551;-70
2022/05/12 05:05:45;;;;;;;19.27;8.17;;;19.90;99.90;;;;;;5095673;28;20176;-70
2022/05/12 05:08:19;;;;;;;29.10;8.23;;;19.90;99.90;;;;;;5095341;28;20167;-67
2022/05/12 05:10:48;;;;;;;20.43;7.80;;;19.80;99.90;;;;;;5095646;28;20187;-69
2022/05/12 05:13:18;;;;;;;20.60;8.63;;;19.80;99.90;;;;;;5095287;28;20207;-70
2022/05/12 05:15:47;;;;;;;23.03;7.93;;;19.80;99.90;;;;;;5095729;28;20623;-70
2022/05/12 05:18:16;;;;;;;22.43;8.87;;;19.90;99.90;;;;;;5095011;28;20246;-68
2022/05/12 05:20:46;;;;;;;20.33;8.47;;;19.90;99.90;;;;;;5094848;28;20181;-69
2022/05/12 05:23:24;;;;;;;18.93;7.67;;;19.90;99.90;;;;;;5092473;28;20189;-68
2022/05/12 05:25:52;;;;;;;15.77;7.60;;;19.90;99.90;;;;;;5092580;28;20179;-69
2022/05/12 05:28:21;;;;;;;19.67;8.00;;;19.90;99.90;;;;;;5095129;28;20650;-69
2022/05/12 05:30:50;;;;;;;20.53;8.30;;;19.90;99.90;;;;;;5094326;28;20180;-70
2022/05/12 05:33:18;;;;;;;23.20;8.57;;;19.80;99.90;;;;;;5093902;28;20642;-68
2022/05/12 05:35:47;;;;;;;14.87;7.50;;;19.80;99.90;;;;;;5094784;28;20238;-69
2022/05/12 05:38:14;;;;;;;23.60;8.70;;;19.80;99.90;;;;;;5094330;28;20184;-69
2022/05/12 05:40:42;;;;;;;26.30;8.67;;;19.80;99.90;;;;;;5093469;28;20175;-69
2022/05/12 05:43:10;;;;;;;19.37;9.07;;;19.80;99.90;;;;;;5095702;28;20583;-69
2022/05/12 05:45:38;;;;;;;16.57;7.33;;;19.80;99.90;;;;;;5094646;28;20182;-68
2022/05/12 05:48:06;;;;;;;24.20;8.00;;;19.70;99.90;;;;;;5094597;28;20225;-68
2022/05/12 05:53:29;;;;;;;21.90;8.40;;;19.80;99.90;;;;;;5094868;28;20276;-68
2022/05/12 05:56:02;;;;;;;19.30;8.33;;;19.80;99.90;;;;;;5094476;28;20215;-69
2022/05/12 05:58:30;;;;;;;21.20;7.90;;;19.70;99.90;;;;;;5098969;28;20214;-69
2022/05/12 06:00:58;;;;;;;24.13;7.53;;;19.70;99.90;;;;;;5094681;28;20244;-69
2022/05/12 06:03:26;;;;;;;22.30;7.53;;;19.70;99.90;;;;;;5094857;28;20188;-69
2022/05/12 06:05:56;;;;;;;17.40;7.43;;;19.70;99.90;;;;;;5094852;28;20237;-69
2022/05/12 06:08:24;;;;;;;22.40;7.43;;;19.70;99.90;;;;;;5094822;28;20207;-69
2022/05/12 06:10:52;;;;;;;20.40;7.27;;;19.60;99.90;;;;;;5094056;28;20183;-68
2022/05/12 06:13:20;;;;;;;15.90;6.57;;;19.60;99.90;;;;;;5094561;28;20203;-69
2022/05/12 06:15:49;;;;;;;28.03;8.10;;;19.60;99.90;;;;;;5093061;28;20571;-68
2022/05/12 06:18:18;;;;;;;23.97;7.73;;;19.60;99.90;;;;;;5093492;28;20179;-69
2022/05/12 06:20:49;;;;;;;33.73;9.67;;;19.60;99.90;;;;;;5094686;28;20677;-70
2022/05/12 06:23:17;;;;;;;19.27;8.30;;;19.60;99.90;;;;;;5094490;28;20250;-70
2022/05/12 06:25:45;;;;;;;24.77;7.57;;;19.60;99.90;;;;;;5094777;28;20233;-69
2022/05/12 06:28:13;;;;;;;23.97;7.43;;;19.60;99.90;;;;;;5095861;28;20183;-70
2022/05/12 06:30:41;;;;;;;21.37;8.13;;;19.50;99.90;;;;;;5095240;28;20191;-69
2022/05/12 06:33:16;;;;;;;23.13;7.67;;;19.50;99.90;;;;;;5096137;28;20662;-70
2022/05/12 06:35:43;;;;;;;29.70;7.70;;;19.50;99.90;;;;;;5095938;28;20178;-69
2022/05/12 06:38:11;;;;;;;19.97;6.73;;;19.50;99.90;;;;;;5095620;28;20373;-68
2022/05/12 06:40:39;;;;;;;19.50;6.43;;;19.40;99.90;;;;;;5095966;28;20194;-69
2022/05/12 06:43:08;;;;;;;24.93;6.70;;;19.40;99.90;;;;;;5095003;28;20264;-69
2022/05/12 06:45:36;;;;;;;17.33;7.00;;;19.40;99.90;;;;;;5094925;28;20178;-69
2022/05/12 06:48:05;;;;;;;23.20;7.00;;;19.30;99.90;;;;;;5093232;28;20179;-68
2022/05/12 06:50:32;;;;;;;23.40;6.03;;;19.30;99.90;;;;;;5094937;28;20172;-68
2022/05/12 06:53:00;;;;;;;22.63;5.07;;;19.30;99.90;;;;;;5096379;28;20202;-68
2022/05/12 06:55:31;;;;;;;19.97;5.60;;;19.30;99.90;;;;;;5095568;28;20572;-69
2022/05/12 06:57:59;;;;;;;21.00;5.63;;;19.20;99.90;;;;;;5094793;28;20179;-69
2022/05/12 07:00:27;;;;;;;22.17;5.23;;;19.20;99.90;;;;;;5095299;28;20179;-68
2022/05/12 07:02:55;;;;;;;25.70;5.37;;;19.20;99.90;;;;;;5095403;28;20183;-70
2022/05/12 07:05:27;;;;;;;21.67;5.07;;;19.20;99.90;;;;;;5096134;28;20171;-69
2022/05/12 07:07:56;;;;;;;20.37;4.77;;;19.20;99.90;;;;;;5095658;28;20228;-68
2022/05/12 07:10:25;;;;;;;17.30;4.27;;;19.10;99.90;;;;;;5096064;28;20179;-69
2022/05/12 07:12:54;;;;;;;17.97;4.73;;;19.10;99.90;;;;;;5095589;28;20182;-70
2022/05/12 07:15:25;;;;;;;21.13;4.70;;;19.10;99.90;;;;;;5096111;28;20189;-69
2022/05/12 07:17:54;;;;;;;16.00;3.83;;;19.10;99.90;;;;;;5095674;28;20224;-69
2022/05/12 07:28:47;;;;;;;10.43;3.33;;;18.90;99.90;;;;;;5096222;28;20190;-69
2022/05/12 07:31:15;;;;;;;18.37;3.70;;;18.90;99.90;;;;;;5094540;28;20229;-69
2022/05/12 07:33:44;;;;;;;15.83;4.03;;;18.90;99.90;;;;;;5094574;28;20222;-69
2022/05/12 07:36:21;;;;;;;15.77;3.57;;;18.80;99.90;;;;;;5096001;28;20184;-69
2022/05/12 07:38:49;;;;;;;16.60;3.30;;;18.90;99.90;;;;;;5094414;28;20221;-69
2022/05/12 07:41:17;;;;;;;20.03;3.90;;;18.80;99.90;;;;;;5096078;28;20644;-68
2022/05/12 07:43:47;;;;;;;13.87;3.20;;;18.80;99.90;;;;;;5094711;28;20190;-69
2022/05/12 07:46:19;;;;;;;14.70;3.80;;;18.80;99.90;;;;;;5092387;28;20168;-69
2022/05/12 07:48:48;;;;;;;12.20;3.47;;;18.70;99.90;;;;;;5093572;28;20848;-68
2022/05/12 07:51:17;;;;;;;16.70;3.77;;;18.80;99.90;;;;;;5093789;28;20175;-68
2022/05/12 07:53:47;;;;;;;19.43;4.50;;;18.70;99.90;;;;;;5092935;28;20203;-67
2022/05/12 07:56:21;;;;;;;19.17;5.03;;;18.70;99.90;;;;;;5094574;28;20227;-68
2022/05/12 07:58:49;;;;;;;15.67;4.00;;;18.70;99.90;;;;;;5096783;28;20176;-68
2022/05/12 08:01:19;;;;;;;19.83;4.53;;;18.70;99.90;;;;;;5096923;28;20179;-67
2022/05/12 08:03:48;;;;;;;22.30;5.13;;;18.70;99.90;;;;;;5096411;28;20219;-68
2022/05/12 08:06:17;;;;;;;29.37;4.63;;;18.80;99.90;;;;;;5095381;28;20283;-66
2022/05/12 08:08:48;;;;;;;19.77;4.70;;;18.70;99.90;;;;;;5095538;28;20558;-67
2022/05/12 08:11:16;;;;;;;14.07;3.77;;;18.70;99.90;;;;;;5096677;28;20198;-68
2022/05/12 08:13:47;;;;;;;15.67;4.00;;;18.70;99.90;;;;;;5097101;28;20225;-68
2022/05/12 08:16:20;;;;;;;12.33;3.70;;;18.70;99.90;;;;;;5097742;28;20199;-67
2022/05/12 08:18:52;;;;;;;13.53;3.43;;;18.70;99.90;;;;;;5097680;28;20217;-68
2022/05/12 08:21:24;;;;;;;17.10;4.30;;;18.70;99.90;;;;;;5096115;28;20183;-67
2022/05/12 08:23:53;;;;;;;19.03;4.40;;;18.70;99.90;;;;;;5093756;28;20189;-69
2022/05/12 08:26:21;;;;;;;16.20;4.47;;;18.70;99.90;;;;;;5095722;28;20215;-68
2022/05/12 08:28:50;;;;;;;22.67;4.63;;;18.70;99.90;;;;;;5095060;28;20193;-69
2022/05/12 08:31:27;;;;;;;15.60;3.97;;;18.70;99.90;;;;;;5096907;28;20200;-68
2022/05/12 08:33:55;;;;;;;18.17;4.30;;;18.70;99.90;;;;;;5092289;28;20206;-67
2022/05/12 08:36:24;;;;;;;11.67;3.33;;;18.70;99.90;;;;;;5095857;28;20299;-67
2022/05/12 08:38:51;;;;;;;15.80;3.93;;;18.70;99.90;;;;;;5094291;28;20202;-67
2022/05/12 08:41:41;;;;;;;14.57;4.83;;;18.70;99.90;;;;;;5095936;28;20182;-68
2022/05/12 08:44:16;;;;;;;18.13;4.57;;;18.70;99.90;;;;;;5095635;28;20189;-68
2022/05/12 08:46:55;;;;;;;16.70;4.10;;;18.60;99.90;;;;;;5095461;28;20732;-68
2022/05/12 08:49:35;;;;;;;23.43;5.07;;;18.60;99.90;;;;;;5095940;28;20170;-67
2022/05/12 08:52:18;;;;;;;13.87;4.13;;;18.60;99.90;;;;;;5092734;28;20183;-68
2022/05/12 08:55:31;;;;;;;16.70;4.23;;;18.60;99.90;;;;;;5095318;28;20641;-69
2022/05/12 08:58:04;;;;;;;15.90;5.73;;;18.60;99.90;;;;;;5067214;28;20199;-68
2022/05/12 09:00:44;;;;;;;19.50;5.50;;;18.60;99.90;;;;;;5090961;28;20171;-68
2022/05/12 09:03:40;;;;;;;19.53;6.10;;;18.60;99.90;;;;;;5095081;28;20190;-68
2022/05/12 09:06:23;;;;;;;24.13;6.77;;;18.60;99.90;;;;;;5095225;28;20636;-68
2022/05/12 09:08:54;;;;;;;27.57;7.13;;;18.60;99.90;;;;;;5074077;28;20210;-67
2022/05/12 09:11:31;;;;;;;22.30;7.20;;;18.60;99.90;;;;;;5074984;28;20247;-68
2022/05/12 09:14:01;;;;;;;22.17;7.40;;;18.60;99.90;;;;;;5082842;28;20217;-66
2022/05/12 09:16:33;;;;;;;25.27;8.03;;;18.50;99.90;;;;;;5095086;28;20182;-68
2022/05/12 09:19:02;;;;;;;21.87;7.40;;;18.50;99.90;;;;;;5095473;28;20172;-68
2022/05/12 09:21:35;;;;;;;18.27;6.97;;;18.50;99.90;;;;;;5094546;28;20641;-67
2022/05/12 09:24:07;;;;;;;17.13;7.40;;;18.50;99.90;;;;;;5094823;28;20547;-68
2022/05/12 09:26:40;;;;;;;16.97;7.20;;;18.50;99.90;;;;;;5095808;28;20206;-69
2022/05/12 09:29:18;;;;;;;19.33;7.83;;;18.60;99.90;;;;;;5094882;28;20179;-69
2022/05/12 09:32:06;;;;;;;21.23;7.97;;;18.50;99.90;;;;;;5096585;28;20175;-69
2022/05/12 09:34:39;;;;;;;16.10;7.10;;;18.50;99.90;;;;;;5095553;28;20268;-68
2022/05/12 09:37:20;;;;;;;26.50;8.93;;;18.50;99.90;;;;;;5095877;28;20740;-66
2022/05/12 09:39:53;;;;;;;22.07;8.30;;;18.50;99.90;;;;;;5097061;28;20530;-68
2022/05/12 09:42:31;;;;;;;20.00;9.07;;;18.50;99.90;;;;;;5095866;28;20179;-67
2022/05/12 09:45:03;;;;;;;26.13;9.00;;;18.50;99.90;;;;;;5084899;28;20199;-67
2022/05/12 09:47:33;;;;;;;31.07;8.10;;;18.50;99.90;;;;;;5094863;28;20554;-69
2022/05/12 09:50:22;;;;;;;22.83;7.30;;;18.50;99.90;;;;;;5094037;28;20195;-68
2022/05/12 09:52:57;;;;;;;19.70;7.63;;;18.50;99.90;;;;;;5093219;28;20644;-68
2022/05/12 09:55:31;;;;;;;22.07;7.33;;;18.50;99.90;;;;;;5093999;28;20234;-70
2022/05/12 09:58:23;;;;;;;34.30;8.60;;;18.50;99.90;;;;;;5092559;28;20191;-68
2022/05/12 10:01:24;;;;;;;28.77;8.80;;;18.50;99.90;;;;;;5094636;28;20669;-68
2022/05/12 10:09:56;;;;;;;24.00;7.73;;;18.40;99.90;;;;;;5095392;28;20187;-68
2022/05/12 10:12:48;;;;;;;26.33;7.67;;;18.40;99.90;;;;;;5094608;28;20171;-68
2022/05/12 10:15:44;;;;;;;29.93;8.60;;;18.40;99.90;;;;;;5094375;28;20199;-68
2022/05/12 10:18:47;;;;;;;21.97;7.57;;;18.40;99.90;;;;;;5093192;28;20549;-67
2022/05/12 10:21:30;;;;;;;31.07;8.13;;;18.40;99.90;;;;;;5094659;28;20617;-68
2022/05/12 10:24:33;;;;;;;26.00;8.03;;;18.50;99.90;;;;;;5094607;28;20220;-67
2022/05/12 10:27:16;;;;;;;23.57;7.50;;;18.40;99.90;;;;;;5094465;28;20207;-69
2022/05/12 10:29:49;;;;;;;29.07;8.20;;;18.50;99.90;;;;;;5094655;28;20254;-69
2022/05/12 10:32:26;;;;;;;31.03;9.13;;;18.40;99.90;;;;;;5094634;28;20175;-68
2022/05/12 10:35:26;;;;;;;31.03;8.83;;;18.40;99.90;;;;;;5092898;28;20241;-68
2022/05/12 10:38:34;;;;;;;28.83;9.07;;;18.40;99.90;;;;;;5094438;28;20189;-68
2022/05/12 10:41:20;;;;;;;24.37;8.47;;;18.40;99.90;;;;;;5092946;28;20191;-68
2022/05/12 10:44:02;;;;;;;24.10;7.60;;;18.40;99.90;;;;;;5093622;28;20172;-67
2022/05/12 10:47:01;;;;;;;20.47;7.47;;;18.50;99.90;;;;;;5094091;28;20550;-68
2022/05/12 10:50:03;;;;;;;24.20;8.73;;;18.50;99.90;;;;;;5094076;28;20183;-68
2022/05/12 10:52:48;;;;;;;23.83;8.00;;;18.50;99.90;;;;;;5077922;28;20183;-67
2022/05/12 10:55:51;;;;;;;28.63;8.17;;;18.50;99.90;;;;;;5093604;28;20719;-68
2022/05/12 10:59:01;;;;;;;25.63;8.47;;;18.50;99.90;;;;;;5093676;28;20190;-68
2022/05/12 11:01:40;;;;;;;28.37;8.73;;;18.50;99.90;;;;;;5035221;28;20951;-67
2022/05/12 11:04:15;;;;;;;18.33;7.10;;;18.50;99.90;;;;;;5035855;28;20176;-67
2022/05/12 11:07:13;;;;;;;22.10;7.77;;;18.50;99.90;;;;;;5079265;28;20191;-67
2022/05/12 11:09:50;;;;;;;19.07;6.80;;;18.50;99.90;;;;;;5093875;28;20189;-68
2022/05/12 11:12:23;;;;;;;19.67;7.23;;;18.50;99.90;;;;;;5092105;28;20190;-67
2022/05/12 11:15:36;;;;;;;22.13;7.13;;;18.50;99.90;;;;;;5092076;28;20217;-67
2022/05/12 11:18:12;;;;;;;22.60;7.70;;;18.50;99.90;;;;;;5093173;28;20179;-68
2022/05/12 11:20:49;;;;;;;20.70;7.13;;;18.50;99.90;;;;;;5092848;28;20191;-68
2022/05/12 11:23:38;;;;;;;19.93;7.87;;;18.50;99.90;;;;;;5090990;28;20236;-67
2022/05/12 11:26:56;;;;;;;18.30;6.93;;;18.50;99.90;;;;;;5092236;28;20714;-67
2022/05/12 11:29:52;;;;;;;20.93;7.70;;;18.50;99.90;;;;;;5071184;28;20191;-67
2022/05/12 11:32:41;;;;;;;16.87;7.10;;;18.50;99.90;;;;;;5094088;28;20176;-67
2022/05/12 11:35:18;;;;;;;20.33;8.37;;;18.40;99.90;;;;;;5093495;28;20327;-68
2022/05/12 11:38:19;;;;;;;15.40;6.93;;;18.50;99.90;;;;;;5092302;28;20258;-67
2022/05/12 11:40:52;;;;;;;18.10;7.10;;;18.40;99.90;;;;;;5084491;28;20191;-67
2022/05/12 11:46:51;;;;;;;17.20;7.67;;;18.40;99.90;;;;;;5092669;28;20597;-68
2022/05/12 11:49:31;;;;;;;18.20;7.83;;;18.40;99.90;;;;;;5093632;28;20190;-68
2022/05/12 11:52:28;;;;;;;22.17;9.63;;;18.40;99.90;;;;;;5094022;28;20304;-67
2022/05/12 11:55:06;;;;;;;21.47;9.03;;;18.50;99.90;;;;;;5094414;28;20203;-67
2022/05/12 11:57:45;;;;;;;21.93;8.40;;;18.50;99.90;;;;;;5096602;28;20179;-69
2022/05/12 12:00:52;;;;;;;21.83;8.43;;;18.40;99.90;;;;;;5093826;28;20627;-69
2022/05/12 12:03:20;;;;;;;16.70;9.07;;;18.40;99.90;;;;;;5070375;28;20295;-69
2022/05/12 12:05:51;;;;;;;16.13;7.80;;;18.40;99.90;;;;;;5070735;28;20177;-68
2022/05/12 12:08:40;;;;;;;21.97;8.93;;;18.40;99.90;;;;;;5082181;28;20344;-68
2022/05/12 12:11:20;;;;;;;21.70;9.53;;;18.40;99.90;;;;;;5092904;28;20570;-68
2022/05/12 12:13:50;;;;;;;20.30;10.13;;;18.30;99.90;;;;;;5092989;28;20199;-68
2022/05/12 12:16:23;;;;;;;26.20;10.07;;;18.40;99.90;;;;;;5089935;28;20181;-68
2022/05/12 12:18:57;;;;;;;21.57;9.83;;;18.30;99.90;;;;;;5091844;28;20197;-69
2022/05/12 12:21:40;;;;;;;20.10;9.53;;;18.30;99.90;;;;;;5092690;28;20216;-68
2022/05/12 12:24:21;;;;;;;22.07;10.33;;;18.30;99.90;;;;;;5091527;28;20191;-68
2022/05/12 12:26:55;;;;;;;29.10;11.73;;;18.30;99.90;;;;;;5092115;28;20196;-68
2022/05/12 12:29:44;;;;;;;24.87;10.57;;;18.40;99.90;;;;;;5092810;28;20179;-68
2022/05/12 12:32:41;;;;;;;24.53;10.60;;;18.30;99.90;;;;;;5092504;28;20221;-68
2022/05/12 12:35:28;;;;;;;19.70;8.43;;;18.30;99.90;;;;;;5087602;28;20231;-68
2022/05/12 12:37:56;;;;;;;20.40;9.77;;;18.30;99.90;;;;;;5092801;28;20522;-69
2022/05/12 12:40:45;;;;;;;22.07;9.03;;;18.20;99.90;;;;;;5092689;28;20185;-69
2022/05/12 12:43:34;;;;;;;29.43;10.67;;;18.20;99.90;;;;;;5088863;28;20183;-69
2022/05/12 12:46:20;;;;;;;28.03;11.67;;;18.30;99.90;;;;;;5096274;28;20682;-69
2022/05/12 12:48:56;;;;;;;21.47;11.17;;;18.30;99.90;;;;;;5096371;28;20176;-68
2022/05/12 12:51:35;;;;;;;19.17;9.83;;;18.30;99.90;;;;;;5096049;28;20179;-68
2022/05/12 12:57:18;;;;;;;22.17;10.77;;;18.30;99.90;;;;;;5095875;28;20357;-67
2022/05/12 12:59:55;;;;;;;22.70;10.87;;;18.30;99.90;;;;;;5096672;28;20175;-68
2022/05/12 13:02:35;;;;;;;28.43;10.87;;;18.30;99.90;;;;;;5081326;28;20244;-68
2022/05/12 13:05:08;;;;;;;27.13;10.87;;;18.30;99.90;;;;;;5095792;28;20182;-69
2022/05/12 13:07:38;;;;;;;27.10;10.23;;;18.30;99.90;;;;;;5096125;28;20187;-68
2022/05/12 13:10:10;;;;;;;23.13;10.23;;;18.30;99.90;;;;;;5096048;28;20173;-68
2022/05/12 13:12:38;;;;;;;24.67;9.90;;;18.40;99.90;;;;;;5096104;28;20521;-69
2022/05/12 13:15:16;;;;;;;18.63;9.40;;;18.30;99.90;;;;;;5095541;28;20206;-68
2022/05/12 13:17:49;;;;;;;19.87;9.97;;;18.30;99.90;;;;;;5095961;28;20636;-68
2022/05/12 13:20:23;;;;;;;25.47;10.03;;;18.30;99.90;;;;;;5095740;28;20255;-68
2022/05/12 13:23:19;;;;;;;20.53;9.87;;;18.30;99.90;;;;;;5096092;28;20592;-68
2022/05/12 13:25:46;;;;;;;17.00;9.50;;;18.30;99.90;;;;;;5080118;28;20175;-69
2022/05/12 13:28:26;;;;;;;20.30;10.23;;;18.30;99.90;;;;;;5096003;28;20185;-69
2022/05/12 13:31:11;;;;;;;17.57;9.13;;;18.30;99.90;;;;;;5096181;28;20182;-69
2022/05/12 13:33:53;;;;;;;19.70;10.47;;;18.20;99.90;;;;;;5095953;28;20203;-68
2022/05/12 13:36:29;;;;;;;22.43;9.27;;;18.20;99.90;;;;;;5095415;28;20171;-69
2022/05/12 13:38:56;;;;;;;20.57;10.23;;;18.20;99.90;;;;;;5096250;28;20522;-69
2022/05/12 13:41:34;;;;;;;29.33;10.00;;;18.20;99.90;;;;;;5096984;28;20175;-68